createdAt,value
2018-12-02T00:01:10.990Z,2.37
2018-12-02T00:03:38.253Z,3.30
2018-12-02T00:06:05.579Z,7.10
2018-12-02T00:08:32.814Z,4.73
2018-12-02T00:11:00.175Z,3.30
2018-12-02T00:13:27.561Z,3.27
2018-12-02T00:15:54.840Z,3.00
2018-12-02T00:18:22.104Z,2.83
2018-12-02T00:20:49.385Z,2.80
2018-12-02T00:23:16.713Z,2.30
2018-12-02T00:25:44.123Z,2.80
2018-12-02T00:28:11.451Z,2.97
2018-12-02T00:30:39.527Z,2.43
2018-12-02T00:33:07.152Z,2.40
2018-12-02T00:35:34.450Z,2.30
2018-12-02T00:38:02.666Z,2.90
2018-12-02T00:40:30.042Z,2.77
2018-12-02T00:42:58.122Z,3.03
2018-12-02T00:45:28.411Z,2.77
2018-12-02T00:47:55.670Z,3.50
2018-12-02T00:50:23.040Z,2.00
2018-12-02T00:52:52.354Z,3.00
2018-12-02T00:55:21.635Z,2.43
2018-12-02T00:57:48.907Z,2.80
2018-12-02T01:00:16.359Z,2.60
2018-12-02T01:02:45.451Z,2.80
2018-12-02T01:05:15.436Z,2.83
2018-12-02T01:07:42.699Z,2.87
2018-12-02T01:10:25.034Z,2.63
2018-12-02T01:12:55.343Z,2.60
2018-12-02T01:15:24.385Z,2.73
2018-12-02T01:17:51.635Z,3.00
2018-12-02T01:20:19.560Z,2.70
2018-12-02T01:22:46.870Z,3.77
2018-12-02T01:25:14.420Z,2.47
2018-12-02T01:27:42.262Z,2.90
2018-12-02T01:30:13.499Z,2.60
2018-12-02T01:32:40.827Z,2.73
2018-12-02T01:35:08.615Z,2.20
2018-12-02T01:37:36.173Z,2.17
2018-12-02T01:40:04.804Z,2.40
2018-12-02T01:42:32.159Z,2.90
2018-12-02T01:44:59.422Z,2.70
2018-12-02T01:47:26.714Z,2.40
2018-12-02T01:49:54.011Z,2.50
2018-12-02T01:52:21.282Z,2.77
2018-12-02T01:54:48.623Z,2.70
2018-12-02T01:57:15.909Z,2.77
2018-12-02T01:59:43.178Z,2.73
2018-12-02T02:02:10.490Z,2.57
2018-12-02T02:04:37.843Z,2.20
2018-12-02T02:07:05.136Z,2.93
2018-12-02T02:09:32.391Z,2.23
2018-12-02T02:11:59.797Z,2.60
2018-12-02T02:14:27.114Z,7.30
2018-12-02T02:16:54.574Z,8.37
2018-12-02T02:19:21.854Z,7.73
2018-12-02T02:21:49.169Z,4.27
2018-12-02T02:24:16.426Z,5.60
2018-12-02T02:26:43.827Z,2.20
2018-12-02T02:29:11.213Z,2.47
2018-12-02T02:31:38.483Z,2.80
2018-12-02T02:34:05.900Z,2.50
2018-12-02T02:36:33.226Z,2.60
2018-12-02T02:39:00.540Z,2.90
2018-12-02T02:41:27.859Z,2.40
2018-12-02T02:43:55.103Z,2.23
2018-12-02T02:46:22.364Z,2.30
2018-12-02T02:48:49.570Z,2.80
2018-12-02T02:51:16.846Z,2.07
2018-12-02T02:53:44.231Z,2.60
2018-12-02T02:56:11.447Z,2.70
2018-12-02T02:58:38.815Z,2.30
2018-12-02T03:01:06.194Z,2.27
2018-12-02T03:03:33.481Z,2.07
2018-12-02T03:06:00.837Z,2.43
2018-12-02T03:08:28.132Z,1.80
2018-12-02T03:10:55.448Z,2.00
2018-12-02T03:13:22.748Z,2.10
2018-12-02T03:15:50.067Z,1.80
2018-12-02T03:18:17.352Z,2.33
2018-12-02T03:20:44.738Z,2.03
2018-12-02T03:23:12.181Z,2.43
2018-12-02T03:25:39.483Z,2.90
2018-12-02T03:28:06.823Z,2.10
2018-12-02T03:30:34.231Z,2.00
2018-12-02T03:33:01.540Z,1.73
2018-12-02T03:35:28.827Z,2.20
2018-12-02T03:37:56.128Z,2.20
2018-12-02T03:40:24.373Z,1.80
2018-12-02T03:42:52.074Z,2.00
2018-12-02T03:45:21.417Z,2.03
2018-12-02T03:47:48.775Z,2.30
2018-12-02T03:50:18.145Z,2.07
2018-12-02T03:52:45.287Z,2.50
2018-12-02T03:55:12.619Z,2.63
2018-12-02T03:57:39.935Z,1.77
2018-12-02T04:00:23.073Z,1.70
2018-12-02T04:02:51.038Z,2.20
2018-12-02T04:05:20.394Z,2.00
2018-12-02T04:07:47.838Z,2.10
2018-12-02T04:10:19.055Z,2.93
2018-12-02T04:12:47.428Z,1.83
2018-12-02T04:15:16.615Z,2.50
2018-12-02T04:17:44.758Z,2.43
2018-12-02T04:20:14.941Z,2.00
2018-12-02T04:22:42.669Z,2.07
2018-12-02T04:25:14.675Z,2.13
2018-12-02T04:27:41.939Z,1.87
2018-12-02T04:30:14.221Z,1.93
2018-12-02T04:32:41.519Z,2.43
2018-12-02T04:35:10.147Z,1.70
2018-12-02T04:37:37.432Z,2.27
2018-12-02T04:40:07.367Z,2.20
2018-12-02T04:42:34.592Z,2.40
2018-12-02T04:45:01.993Z,2.30
2018-12-02T04:47:29.260Z,2.17
2018-12-02T04:49:56.544Z,2.60
2018-12-02T04:52:23.797Z,2.40
2018-12-02T04:54:51.114Z,2.13
2018-12-02T04:57:18.447Z,2.20
2018-12-02T04:59:45.704Z,2.07
2018-12-02T05:02:13.065Z,1.80
2018-12-02T05:04:40.390Z,1.90
2018-12-02T05:07:07.752Z,2.00
2018-12-02T05:09:35.067Z,1.93
2018-12-02T05:12:02.413Z,2.37
2018-12-02T05:14:29.719Z,2.03
2018-12-02T05:16:57.023Z,1.97
2018-12-02T05:19:24.323Z,1.70
2018-12-02T05:21:52.123Z,1.60
2018-12-02T05:24:19.435Z,2.00
2018-12-02T05:26:46.639Z,1.87
2018-12-02T05:29:13.897Z,1.70
2018-12-02T05:31:41.130Z,1.70
2018-12-02T05:34:08.456Z,2.20
2018-12-02T05:36:35.798Z,1.63
2018-12-02T05:39:05.347Z,1.77
2018-12-02T05:41:38.312Z,1.80
2018-12-02T05:44:05.567Z,1.63
2018-12-02T05:46:32.802Z,1.03
2018-12-02T05:49:00.187Z,1.33
2018-12-02T05:51:27.453Z,1.40
2018-12-02T05:53:54.716Z,1.60
2018-12-02T05:56:21.950Z,1.50
2018-12-02T05:58:49.320Z,1.00
2018-12-02T06:01:16.674Z,1.00
2018-12-02T06:03:43.946Z,1.60
2018-12-02T06:06:11.262Z,1.43
2018-12-02T06:08:38.572Z,1.47
2018-12-02T06:11:05.881Z,1.20
2018-12-02T06:13:33.213Z,0.93
2018-12-02T06:16:00.438Z,1.13
2018-12-02T06:18:27.721Z,0.80
2018-12-02T06:20:55.052Z,0.90
2018-12-02T06:23:22.323Z,1.00
2018-12-02T06:25:49.588Z,0.90
2018-12-02T06:28:16.814Z,0.80
2018-12-02T06:30:44.078Z,0.80
2018-12-02T06:33:11.351Z,0.90
2018-12-02T06:35:38.622Z,0.93
2018-12-02T06:38:06.408Z,1.00
2018-12-02T06:40:33.732Z,1.27
2018-12-02T06:43:01.666Z,1.00
2018-12-02T06:45:28.951Z,1.30
2018-12-02T06:47:56.290Z,1.00
2018-12-02T06:50:25.858Z,1.00
2018-12-02T06:52:53.945Z,1.30
2018-12-02T06:55:34.405Z,1.23
2018-12-02T06:59:12.799Z,1.07
2018-12-02T07:02:50.859Z,1.03
2018-12-02T07:05:23.616Z,1.20
2018-12-02T07:07:50.920Z,1.23
2018-12-02T07:10:18.209Z,1.10
2018-12-02T07:12:45.529Z,1.80
2018-12-02T07:15:12.808Z,1.70
2018-12-02T07:17:43.327Z,1.57
2018-12-02T07:20:14.426Z,1.73
2018-12-02T07:22:44.716Z,1.10
2018-12-02T07:25:17.063Z,1.50
2018-12-02T07:27:44.371Z,1.70
2018-12-02T07:30:12.586Z,1.57
2018-12-02T07:32:39.827Z,1.53
2018-12-02T07:35:09.587Z,1.37
2018-12-02T07:37:37.072Z,1.47
2018-12-02T07:40:25.340Z,1.27
2018-12-02T07:42:52.664Z,1.30
2018-12-02T07:45:20.046Z,1.40
2018-12-02T07:47:47.365Z,1.40
2018-12-02T07:50:14.718Z,1.33
2018-12-02T07:52:42.043Z,1.20
2018-12-02T07:55:10.373Z,1.33
2018-12-02T07:57:37.671Z,1.37
2018-12-02T08:00:12.647Z,1.50
2018-12-02T08:02:40.192Z,1.27
2018-12-02T08:05:08.814Z,1.20
2018-12-02T08:07:36.101Z,1.17
2018-12-02T08:10:06.216Z,1.07
2018-12-02T08:12:33.480Z,1.10
2018-12-02T08:15:00.789Z,1.27
2018-12-02T08:17:28.024Z,0.90
2018-12-02T08:19:55.387Z,0.90
2018-12-02T08:22:22.628Z,0.97
2018-12-02T08:24:49.909Z,1.10
2018-12-02T08:27:17.216Z,0.80
2018-12-02T08:29:44.546Z,0.80
2018-12-02T08:32:11.962Z,0.70
2018-12-02T08:34:39.280Z,0.60
2018-12-02T08:37:06.523Z,0.63
2018-12-02T08:39:33.831Z,0.80
2018-12-02T08:42:01.124Z,0.70
2018-12-02T08:44:28.390Z,0.70
2018-12-02T08:46:55.677Z,0.50
2018-12-02T08:49:22.964Z,0.50
2018-12-02T08:51:50.281Z,0.60
2018-12-02T08:54:17.577Z,0.70
2018-12-02T08:56:44.861Z,0.60
2018-12-02T08:59:12.185Z,0.63
2018-12-02T09:01:39.384Z,0.60
2018-12-02T09:04:06.663Z,0.60
2018-12-02T09:06:33.935Z,0.60
2018-12-02T09:09:01.814Z,0.70
2018-12-02T09:11:29.078Z,0.50
2018-12-02T09:13:56.391Z,0.60
2018-12-02T09:16:23.676Z,0.50
2018-12-02T09:18:50.979Z,0.60
2018-12-02T09:21:18.235Z,0.77
2018-12-02T09:23:47.374Z,0.80
2018-12-02T09:26:12.868Z,0.80
2018-12-02T09:28:40.082Z,0.90
2018-12-02T09:31:07.382Z,0.87
2018-12-02T09:33:34.648Z,0.80
2018-12-02T09:36:01.882Z,1.00
2018-12-02T09:38:29.161Z,0.93
2018-12-02T09:40:56.370Z,0.97
2018-12-02T09:43:23.639Z,1.10
2018-12-02T09:45:50.880Z,0.77
2018-12-02T09:48:18.161Z,1.73
2018-12-02T09:50:45.466Z,1.00
2018-12-02T09:53:12.720Z,1.40
2018-12-02T09:55:41.959Z,1.10
2018-12-02T09:58:10.979Z,1.33
2018-12-02T10:00:39.066Z,1.20
2018-12-02T10:03:06.444Z,1.43
2018-12-02T10:05:33.708Z,1.27
2018-12-02T10:08:01.024Z,1.30
2018-12-02T10:10:28.275Z,1.03
2018-12-02T10:12:56.973Z,1.23
2018-12-02T10:15:24.326Z,1.30
2018-12-02T10:17:51.695Z,1.30
2018-12-02T10:20:19.057Z,1.33
2018-12-02T10:22:46.585Z,1.20
2018-12-02T10:25:15.790Z,1.10
2018-12-02T10:27:43.168Z,1.17
2018-12-02T10:30:18.579Z,1.20
2018-12-02T10:32:45.978Z,1.53
2018-12-02T10:35:13.364Z,1.10
2018-12-02T10:37:40.666Z,1.27
2018-12-02T10:40:10.527Z,0.90
2018-12-02T10:42:37.813Z,0.80
2018-12-02T10:45:06.938Z,0.80
2018-12-02T10:47:34.309Z,0.70
2018-12-02T10:50:01.632Z,0.80
2018-12-02T10:52:29.025Z,0.80
2018-12-02T10:54:56.371Z,0.97
2018-12-02T10:57:23.658Z,0.77
2018-12-02T10:59:50.939Z,0.70
2018-12-02T11:02:18.263Z,0.90
2018-12-02T11:04:45.543Z,0.83
2018-12-02T11:07:12.853Z,0.90
2018-12-02T11:09:40.108Z,1.10
2018-12-02T11:12:07.428Z,1.00
2018-12-02T11:14:34.737Z,1.10
2018-12-02T11:17:01.978Z,0.90
2018-12-02T11:19:29.294Z,1.30
2018-12-02T11:21:56.612Z,1.20
2018-12-02T11:24:23.938Z,1.00
2018-12-02T11:26:51.254Z,1.20
2018-12-02T11:29:18.563Z,1.47
2018-12-02T11:31:45.902Z,1.55
2018-12-02T11:34:13.199Z,1.63
2018-12-02T11:36:40.472Z,1.27
2018-12-02T11:39:08.478Z,1.73
2018-12-02T11:41:35.989Z,1.90
2018-12-02T11:44:03.468Z,2.10
2018-12-02T11:46:30.848Z,1.53
2018-12-02T11:48:58.134Z,1.60
2018-12-02T11:51:25.412Z,1.63
2018-12-02T11:53:52.662Z,2.53
2018-12-02T11:56:19.975Z,3.00
2018-12-02T11:58:47.255Z,1.90
2018-12-02T12:01:14.534Z,1.80
2018-12-02T12:03:41.820Z,2.20
2018-12-02T12:06:09.063Z,4.35
2018-12-02T12:08:36.310Z,2.10
2018-12-02T12:11:03.748Z,1.80
2018-12-02T12:13:31.090Z,1.77
2018-12-02T12:15:58.375Z,2.30
2018-12-02T12:18:25.671Z,1.87
2018-12-02T12:20:52.972Z,2.17
2018-12-02T12:23:20.634Z,2.00
2018-12-02T12:25:48.005Z,2.17
2018-12-02T12:28:15.225Z,2.40
2018-12-02T12:30:42.555Z,1.93
2018-12-02T12:33:10.150Z,1.70
2018-12-02T12:35:40.180Z,1.83
2018-12-02T12:38:07.460Z,1.73
2018-12-02T12:40:35.942Z,1.50
2018-12-02T12:43:12.944Z,1.70
2018-12-02T12:45:40.200Z,2.60
2018-12-02T12:48:07.499Z,2.07
2018-12-02T12:50:34.785Z,2.00
2018-12-02T12:53:02.151Z,1.40
2018-12-02T12:55:29.467Z,2.57
2018-12-02T12:57:56.722Z,2.03
2018-12-02T13:00:24.019Z,2.00
2018-12-02T13:02:51.555Z,1.80
2018-12-02T13:05:20.896Z,1.73
2018-12-02T13:07:48.272Z,1.63
2018-12-02T13:10:16.122Z,2.03
2018-12-02T13:12:43.402Z,1.90
2018-12-02T13:15:12.794Z,1.93
2018-12-02T13:17:40.603Z,1.90
2018-12-02T13:20:14.025Z,1.80
2018-12-02T13:22:41.328Z,2.10
2018-12-02T13:25:10.803Z,1.70
2018-12-02T13:27:38.226Z,2.30
2018-12-02T13:30:13.831Z,2.57
2018-12-02T13:32:41.295Z,1.97
2018-12-02T13:35:09.066Z,2.10
2018-12-02T13:37:36.391Z,1.80
2018-12-02T13:40:09.851Z,2.00
2018-12-02T13:42:37.116Z,1.97
2018-12-02T13:45:07.627Z,2.67
2018-12-02T13:47:34.945Z,2.00
2018-12-02T13:50:02.485Z,1.83
2018-12-02T13:52:29.816Z,1.80
2018-12-02T13:54:57.070Z,4.60
2018-12-02T13:57:25.289Z,3.37
2018-12-02T13:59:52.567Z,2.40
2018-12-02T14:02:19.847Z,2.27
2018-12-02T14:04:47.132Z,1.93
2018-12-02T14:07:14.421Z,2.67
2018-12-02T14:09:41.723Z,2.00
2018-12-02T14:12:09.055Z,1.80
2018-12-02T14:14:39.222Z,1.80
2018-12-02T14:17:10.923Z,2.20
2018-12-02T14:19:38.995Z,1.90
2018-12-02T14:22:06.259Z,2.10
2018-12-02T14:24:33.644Z,1.50
2018-12-02T14:27:00.918Z,1.50
2018-12-02T14:29:34.759Z,1.50
2018-12-02T14:32:05.722Z,1.30
2018-12-02T14:34:33.039Z,1.47
2018-12-02T14:37:00.345Z,1.47
2018-12-02T14:39:27.632Z,1.20
2018-12-02T14:41:54.923Z,1.30
2018-12-02T14:44:22.249Z,1.83
2018-12-02T14:46:49.498Z,1.50
2018-12-02T14:49:16.799Z,1.30
2018-12-02T14:51:44.011Z,1.03
2018-12-02T14:54:11.455Z,0.90
2018-12-02T14:56:38.825Z,1.33
2018-12-02T14:59:06.187Z,1.20
2018-12-02T15:01:33.519Z,0.90
2018-12-02T15:04:00.845Z,0.80
2018-12-02T15:06:28.213Z,0.80
2018-12-02T15:08:55.426Z,1.00
2018-12-02T15:11:22.691Z,1.10
2018-12-02T15:13:49.949Z,0.83
2018-12-02T15:16:17.208Z,0.83
2018-12-02T15:18:44.471Z,0.97
2018-12-02T15:21:11.711Z,0.97
2018-12-02T15:23:38.991Z,1.07
2018-12-02T15:26:06.293Z,1.07
2018-12-02T15:28:33.587Z,1.00
2018-12-02T15:31:00.886Z,1.17
2018-12-02T15:33:28.223Z,1.00
2018-12-02T15:35:55.459Z,1.00
2018-12-02T15:38:22.789Z,1.00
2018-12-02T15:40:50.084Z,0.83
2018-12-02T15:43:17.368Z,1.00
2018-12-02T15:45:44.748Z,1.00
2018-12-02T15:48:12.019Z,0.80
2018-12-02T15:50:40.357Z,1.20
2018-12-02T15:53:07.691Z,0.80
2018-12-02T15:55:35.419Z,0.90
2018-12-02T15:58:04.986Z,0.97
2018-12-02T16:00:33.602Z,0.90
2018-12-02T16:03:00.895Z,1.10
2018-12-02T16:05:28.239Z,1.10
2018-12-02T16:07:56.610Z,1.27
2018-12-02T16:10:23.969Z,1.67
2018-12-02T16:12:52.010Z,1.23
2018-12-02T16:15:20.574Z,1.20
2018-12-02T16:17:48.728Z,1.27
2018-12-02T16:20:18.304Z,1.27
2018-12-02T16:22:45.831Z,1.30
2018-12-02T16:25:13.112Z,1.20
2018-12-02T16:27:40.490Z,1.67
2018-12-02T16:30:13.552Z,1.60
2018-12-02T16:32:41.389Z,0.90
2018-12-02T16:35:10.048Z,0.93
2018-12-02T16:37:37.491Z,1.00
2018-12-02T16:40:09.400Z,1.10
2018-12-02T16:42:36.685Z,2.03
2018-12-02T16:45:05.682Z,1.10
2018-12-02T16:47:32.963Z,1.10
2018-12-02T16:50:00.237Z,1.10
2018-12-02T16:52:27.539Z,1.13
2018-12-02T16:54:54.839Z,1.20
2018-12-02T16:57:22.081Z,1.20
2018-12-02T16:59:49.406Z,1.10
2018-12-02T17:02:16.770Z,1.03
2018-12-02T17:04:44.098Z,1.30
2018-12-02T17:07:11.417Z,1.50
2018-12-02T17:09:38.720Z,1.30
2018-12-02T17:12:06.132Z,1.13
2018-12-02T17:14:38.519Z,1.37
2018-12-02T17:17:00.744Z,1.20
2018-12-02T17:19:28.083Z,1.30
2018-12-02T17:21:55.387Z,1.70
2018-12-02T17:24:22.628Z,1.43
2018-12-02T17:26:49.888Z,1.50
2018-12-02T17:29:18.351Z,1.60
2018-12-02T17:31:57.624Z,1.10
2018-12-02T17:34:24.900Z,1.40
2018-12-02T17:36:52.215Z,8.20
2018-12-02T17:39:24.334Z,3.57
2018-12-02T17:41:56.032Z,1.77
2018-12-02T17:44:23.362Z,1.80
2018-12-02T17:46:50.696Z,1.60
2018-12-02T17:49:17.922Z,1.60
2018-12-02T17:51:45.230Z,1.50
2018-12-02T17:54:12.610Z,1.50
2018-12-02T17:56:39.980Z,1.80
2018-12-02T17:59:07.245Z,1.53
2018-12-02T18:01:34.563Z,1.73
2018-12-02T18:04:01.933Z,1.20
2018-12-02T18:06:29.249Z,1.60
2018-12-02T18:08:56.507Z,1.80
2018-12-02T18:11:23.755Z,1.43
2018-12-02T18:13:51.012Z,1.70
2018-12-02T18:16:18.292Z,1.83
2018-12-02T18:18:45.648Z,1.20
2018-12-02T18:21:13.001Z,1.53
2018-12-02T18:23:40.381Z,1.93
2018-12-02T18:26:07.651Z,1.97
2018-12-02T18:28:34.967Z,2.23
2018-12-02T18:31:02.336Z,2.37
2018-12-02T18:33:29.581Z,2.17
2018-12-02T18:35:58.711Z,2.20
2018-12-02T18:38:27.206Z,2.20
2018-12-02T18:40:58.398Z,2.57
2018-12-02T18:43:25.967Z,2.60
2018-12-02T18:45:53.307Z,2.00
2018-12-02T18:48:20.652Z,2.40
2018-12-02T18:50:48.052Z,2.03
2018-12-02T18:53:15.422Z,2.47
2018-12-02T18:55:42.739Z,2.00
2018-12-02T18:58:10.011Z,2.00
2018-12-02T19:00:42.919Z,2.20
2018-12-02T19:03:10.184Z,2.17
2018-12-02T19:05:37.454Z,2.53
2018-12-02T19:08:05.147Z,2.50
2018-12-02T19:10:32.427Z,3.07
2018-12-02T19:12:59.783Z,2.83
2018-12-02T19:15:27.032Z,2.90
2018-12-02T19:17:54.297Z,5.57
2018-12-02T19:20:23.107Z,8.80
2018-12-02T19:22:51.946Z,4.70
2018-12-02T19:25:20.756Z,3.50
2018-12-02T19:27:48.066Z,2.90
2018-12-02T19:30:16.009Z,3.30
2018-12-02T19:32:43.706Z,2.60
2018-12-02T19:35:12.434Z,2.50
2018-12-02T19:37:39.855Z,2.40
2018-12-02T19:40:11.300Z,2.17
2018-12-02T19:42:38.795Z,1.93
2018-12-02T19:45:08.655Z,2.23
2018-12-02T19:47:35.920Z,2.27
2018-12-02T19:50:03.451Z,2.20
2018-12-02T19:52:30.749Z,2.03
2018-12-02T19:54:58.014Z,2.70
2018-12-02T19:57:25.333Z,2.00
2018-12-02T19:59:52.548Z,1.87
2018-12-02T20:02:19.831Z,1.83
2018-12-02T20:04:47.211Z,2.37
2018-12-02T20:07:14.533Z,2.47
2018-12-02T20:09:41.846Z,2.90
2018-12-02T20:12:09.157Z,3.27
2018-12-02T20:14:36.475Z,2.90
2018-12-02T20:17:04.000Z,2.83
2018-12-02T20:19:36.961Z,2.33
2018-12-02T20:22:04.403Z,3.20
2018-12-02T20:24:37.406Z,3.30
2018-12-02T20:27:04.735Z,3.10
2018-12-02T20:29:32.013Z,2.53
2018-12-02T20:31:59.368Z,2.80
2018-12-02T20:34:26.688Z,2.70
2018-12-02T20:36:53.998Z,3.43
2018-12-02T20:39:21.336Z,2.43
2018-12-02T20:41:48.901Z,2.07
2018-12-02T20:44:16.327Z,2.30
2018-12-02T20:46:43.591Z,1.80
2018-12-02T20:49:10.903Z,2.23
2018-12-02T20:51:38.187Z,2.00
2018-12-02T20:54:05.889Z,1.93
2018-12-02T20:56:33.256Z,1.83
2018-12-02T20:59:00.498Z,2.10
2018-12-02T21:01:28.040Z,1.73
2018-12-02T21:03:56.212Z,1.70
2018-12-02T21:06:23.612Z,1.43
2018-12-02T21:08:50.899Z,1.30
2018-12-02T21:11:18.266Z,1.13
2018-12-02T21:13:45.647Z,1.10
2018-12-02T21:16:12.971Z,1.00
2018-12-02T21:18:40.216Z,1.00
2018-12-02T21:21:07.476Z,0.97
2018-12-02T21:23:34.780Z,0.83
2018-12-02T21:26:02.825Z,1.47
2018-12-02T21:28:30.119Z,0.73
2018-12-02T21:30:57.408Z,1.20
2018-12-02T21:33:24.724Z,1.00
2018-12-02T21:35:52.063Z,1.47
2018-12-02T21:38:19.330Z,1.50
2018-12-02T21:40:46.636Z,1.70
2018-12-02T21:43:13.917Z,2.33
2018-12-02T21:45:41.230Z,2.20
2018-12-02T21:48:11.451Z,2.60
2018-12-02T21:50:38.745Z,2.40
2018-12-02T21:53:06.113Z,2.93
2018-12-02T21:55:33.403Z,4.30
2018-12-02T21:58:00.668Z,6.90
2018-12-02T22:00:33.670Z,6.73
2018-12-02T22:03:00.950Z,3.57
2018-12-02T22:05:28.195Z,3.53
2018-12-02T22:07:55.533Z,3.80
2018-12-02T22:10:30.100Z,2.97
2018-12-02T22:12:57.088Z,3.57
2018-12-02T22:15:24.452Z,3.77
2018-12-02T22:17:51.822Z,3.57
2018-12-02T22:20:19.064Z,3.77
2018-12-02T22:22:46.388Z,3.87
2018-12-02T22:25:15.438Z,4.40
2018-12-02T22:27:44.843Z,3.60
2018-12-02T22:30:14.003Z,4.33
2018-12-02T22:32:41.415Z,4.20
2018-12-02T22:35:09.729Z,3.60
2018-12-02T22:37:37.071Z,3.87
2018-12-02T22:40:13.246Z,3.80
2018-12-02T22:42:40.492Z,3.57
2018-12-02T22:45:09.332Z,3.30
2018-12-02T22:47:36.582Z,3.07
2018-12-02T22:50:05.865Z,2.97
2018-12-02T22:52:33.138Z,6.70
2018-12-02T22:55:00.446Z,9.93
2018-12-02T22:57:27.803Z,3.20
2018-12-02T22:59:55.051Z,2.80
2018-12-02T23:02:26.284Z,2.23
2018-12-02T23:04:53.647Z,2.20
2018-12-02T23:07:21.038Z,2.37
2018-12-02T23:09:48.350Z,1.80
2018-12-02T23:12:15.643Z,2.10
2018-12-02T23:14:42.951Z,1.43
2018-12-02T23:17:21.730Z,1.30
2018-12-02T23:19:49.158Z,1.57
2018-12-02T23:22:16.416Z,1.70
2018-12-02T23:24:43.706Z,1.37
2018-12-02T23:27:11.004Z,1.40
2018-12-02T23:29:38.296Z,1.40
2018-12-02T23:32:05.631Z,0.90
2018-12-02T23:34:33.024Z,1.33
2018-12-02T23:37:00.348Z,1.00
2018-12-02T23:39:27.631Z,1.00
2018-12-02T23:41:54.990Z,1.20
2018-12-02T23:44:22.325Z,1.20
2018-12-02T23:46:49.654Z,1.00
2018-12-02T23:49:17.015Z,1.20
2018-12-02T23:51:44.286Z,1.30
2018-12-02T23:54:11.583Z,0.90
2018-12-02T23:56:38.919Z,0.90
2018-12-02T23:59:06.208Z,1.00
